UAL5744 KSFO-KPDX
Flight info
| Callsign | UAL5744 |
|---|---|
| Flight time | N/A |
| Altitude | 38000 |
| Route | TRUKN2 GRTFL MACHU TMBRS4 |
| Aircraft | A319/M-SDE3FGHIRWY/LB1 |
Departure
| Time | 2026-05-03 21:45 |
|---|---|
| Airport | San Francisco International Airport (KSFO) |
Arrival
| Time | N/A |
|---|---|
| Airport | Portland International Airport (KPDX) |
| Time | Latitude | Longitude | Altitude | Speed | Heading |
|---|---|---|---|---|---|
| 2026-05-03 21:23 | 37.62023 | -122.38940 | 17 ft | 0 kts | 27° |
| 2026-05-03 21:27 | 37.62022 | -122.38940 | 16 ft | 0 kts | 27° |
| 2026-05-03 21:35 | 37.62005 | -122.38951 | 17 ft | 3 kts | 23° |
| 2026-05-03 21:35 | 37.61988 | -122.38950 | 17 ft | 3 kts | 297° |
| 2026-05-03 21:35 | 37.61987 | -122.38948 | 17 ft | 0 kts | 295° |
| 2026-05-03 21:38 | 37.61994 | -122.38969 | 16 ft | 6 kts | 288° |
| 2026-05-03 21:38 | 37.62010 | -122.39030 | 14 ft | 9 kts | 289° |
| 2026-05-03 21:38 | 37.62037 | -122.39118 | 15 ft | 12 kts | 302° |
| 2026-05-03 21:38 | 37.62117 | -122.39162 | 15 ft | 14 kts | 2° |
| 2026-05-03 21:39 | 37.62209 | -122.39115 | 17 ft | 15 kts | 34° |
| 2026-05-03 21:39 | 37.62252 | -122.38992 | 16 ft | 17 kts | 76° |
| 2026-05-03 21:39 | 37.62225 | -122.38840 | 14 ft | 20 kts | 114° |
| 2026-05-03 21:39 | 37.62162 | -122.38679 | 18 ft | 21 kts | 118° |
| 2026-05-03 21:40 | 37.62093 | -122.38518 | 19 ft | 22 kts | 118° |
| 2026-05-03 21:40 | 37.62024 | -122.38346 | 23 ft | 22 kts | 116° |
| 2026-05-03 21:40 | 37.61950 | -122.38165 | 24 ft | 25 kts | 118° |
| 2026-05-03 21:40 | 37.61863 | -122.37962 | 21 ft | 28 kts | 117° |
| 2026-05-03 21:41 | 37.61785 | -122.37733 | 18 ft | 22 kts | 111° |
| 2026-05-03 21:41 | 37.61741 | -122.37578 | 20 ft | 19 kts | 112° |
| 2026-05-03 21:41 | 37.61680 | -122.37416 | 21 ft | 21 kts | 117° |
| 2026-05-03 21:41 | 37.61609 | -122.37249 | 23 ft | 22 kts | 117° |
| 2026-05-03 21:42 | 37.61532 | -122.37063 | 24 ft | 25 kts | 117° |
| 2026-05-03 21:42 | 37.61449 | -122.36900 | 22 ft | 22 kts | 130° |
| 2026-05-03 21:42 | 37.61349 | -122.36737 | 18 ft | 25 kts | 121° |
| 2026-05-03 21:42 | 37.61259 | -122.36528 | 15 ft | 29 kts | 118° |
| 2026-05-03 21:43 | 37.61175 | -122.36326 | 19 ft | 15 kts | 116° |
| 2026-05-03 21:43 | 37.61123 | -122.36196 | 17 ft | 18 kts | 116° |
| 2026-05-03 21:43 | 37.61065 | -122.36054 | 20 ft | 16 kts | 117° |
| 2026-05-03 21:43 | 37.61069 | -122.35935 | 19 ft | 16 kts | 59° |
| 2026-05-03 21:44 | 37.61163 | -122.35873 | 20 ft | 15 kts | 360° |
| 2026-05-03 21:44 | 37.61212 | -122.35935 | 18 ft | 0 kts | 297° |
| 2026-05-03 21:44 | 37.61295 | -122.36137 | 15 ft | 57 kts | 297° |
| 2026-05-03 21:45 | 37.61574 | -122.36799 | 22 ft | 113 kts | 298° |
| 2026-05-03 21:45 | 37.62024 | -122.37872 | 26 ft | 162 kts | 298° |
| 2026-05-03 21:45 | 37.62595 | -122.39173 | 464 ft | 171 kts | 296° |
| 2026-05-03 21:45 | 37.63291 | -122.40374 | 1196 ft | 173 kts | 321° |
| 2026-05-03 21:46 | 37.64469 | -122.40699 | 1787 ft | 187 kts | 9° |
| 2026-05-03 21:46 | 37.65619 | -122.39790 | 2140 ft | 211 kts | 54° |
| 2026-05-03 21:46 | 37.66302 | -122.38054 | 2554 ft | 235 kts | 68° |
| 2026-05-03 21:46 | 37.66958 | -122.36050 | 3093 ft | 259 kts | 68° |
| 2026-05-03 21:47 | 37.67649 | -122.33887 | 3960 ft | 270 kts | 70° |
| 2026-05-03 21:47 | 37.68358 | -122.31680 | 5040 ft | 272 kts | 70° |
| 2026-05-03 21:47 | 37.69079 | -122.29471 | 6174 ft | 271 kts | 72° |
| 2026-05-03 21:47 | 37.69808 | -122.27274 | 7186 ft | 273 kts | 72° |
| 2026-05-03 21:48 | 37.70590 | -122.25073 | 8088 ft | 280 kts | 64° |
| 2026-05-03 21:48 | 37.71864 | -122.23157 | 8947 ft | 292 kts | 42° |
| 2026-05-03 21:48 | 37.73662 | -122.21899 | 9846 ft | 302 kts | 20° |
| 2026-05-03 21:48 | 37.75764 | -122.21523 | 10596 ft | 313 kts | 1° |
| 2026-05-03 21:49 | 37.78027 | -122.21557 | 10926 ft | 335 kts | 360° |
| 2026-05-03 21:49 | 37.80396 | -122.21628 | 11558 ft | 344 kts | 359° |
| 2026-05-03 21:49 | 37.82691 | -122.21710 | 12287 ft | 348 kts | 359° |
| 2026-05-03 21:49 | 37.85126 | -122.21794 | 13053 ft | 352 kts | 359° |
| 2026-05-03 21:50 | 37.87591 | -122.21872 | 13826 ft | 356 kts | 359° |
| 2026-05-03 21:50 | 37.90083 | -122.21947 | 14497 ft | 360 kts | 0° |
| 2026-05-03 21:50 | 37.92599 | -122.22018 | 15172 ft | 363 kts | 0° |
| 2026-05-03 21:50 | 37.95103 | -122.22085 | 15831 ft | 367 kts | 0° |
| 2026-05-03 21:51 | 37.97666 | -122.22149 | 16497 ft | 370 kts | 0° |